sensor_id;sensor_type;location;lat;lon;timestamp;P1;P2;P0
33948;PMS7003;20229;49.856;19.030;2024-01-15T00:02:08;4;3;0
33948;PMS7003;20229;49.856;19.030;2024-01-15T00:07:22;4;3;1
33948;PMS7003;20229;49.856;19.030;2024-01-15T00:12:36;2;2;1
33948;PMS7003;20229;49.856;19.030;2024-01-15T00:17:50;3;3;2
33948;PMS7003;20229;49.856;19.030;2024-01-15T00:23:04;2;2;1
33948;PMS7003;20229;49.856;19.030;2024-01-15T00:28:18;6;6;2
33948;PMS7003;20229;49.856;19.030;2024-01-15T00:33:32;6;4;2
33948;PMS7003;20229;49.856;19.030;2024-01-15T00:38:47;2;2;1
33948;PMS7003;20229;49.856;19.030;2024-01-15T00:44:02;3;2;2
33948;PMS7003;20229;49.856;19.030;2024-01-15T00:49:17;2;1;1
33948;PMS7003;20229;49.856;19.030;2024-01-15T00:54:31;2;2;0
33948;PMS7003;20229;49.856;19.030;2024-01-15T00:59:47;5;4;2
33948;PMS7003;20229;49.856;19.030;2024-01-15T01:05:02;3;2;1
33948;PMS7003;20229;49.856;19.030;2024-01-15T01:10:17;2;2;0
33948;PMS7003;20229;49.856;19.030;2024-01-15T01:15:31;2;2;1
33948;PMS7003;20229;49.856;19.030;2024-01-15T01:20:47;2;2;1
33948;PMS7003;20229;49.856;19.030;2024-01-15T01:26:01;2;1;0
33948;PMS7003;20229;49.856;19.030;2024-01-15T01:31:15;2;2;1
33948;PMS7003;20229;49.856;19.030;2024-01-15T01:36:31;3;2;1
33948;PMS7003;20229;49.856;19.030;2024-01-15T01:41:47;2;2;0
33948;PMS7003;20229;49.856;19.030;2024-01-15T01:47:01;0;0;0
33948;PMS7003;20229;49.856;19.030;2024-01-15T01:52:17;5;3;1
33948;PMS7003;20229;49.856;19.030;2024-01-15T01:57:31;2;2;0
33948;PMS7003;20229;49.856;19.030;2024-01-15T02:02:47;2;1;0
33948;PMS7003;20229;49.856;19.030;2024-01-15T02:08:02;2;1;0
33948;PMS7003;20229;49.856;19.030;2024-01-15T02:13:17;2;1;0
33948;PMS7003;20229;49.856;19.030;2024-01-15T02:23:57;2;2;0
33948;PMS7003;20229;49.856;19.030;2024-01-15T02:29:11;2;2;1
33948;PMS7003;20229;49.856;19.030;2024-01-15T02:34:29;1;1;0
33948;PMS7003;20229;49.856;19.030;2024-01-15T02:39:46;3;2;0
33948;PMS7003;20229;49.856;19.030;2024-01-15T02:45:02;2;2;0
33948;PMS7003;20229;49.856;19.030;2024-01-15T02:50:16;2;2;0
33948;PMS7003;20229;49.856;19.030;2024-01-15T02:55:30;1;1;0
33948;PMS7003;20229;49.856;19.030;2024-01-15T03:00:44;2;1;0
33948;PMS7003;20229;49.856;19.030;2024-01-15T03:05:59;2;2;1
33948;PMS7003;20229;49.856;19.030;2024-01-15T03:11:15;2;1;0
33948;PMS7003;20229;49.856;19.030;2024-01-15T03:16:30;2;2;1
33948;PMS7003;20229;49.856;19.030;2024-01-15T03:21:44;2;2;0
33948;PMS7003;20229;49.856;19.030;2024-01-15T03:27:00;2;2;1
33948;PMS7003;20229;49.856;19.030;2024-01-15T03:32:14;1;1;0
33948;PMS7003;20229;49.856;19.030;2024-01-15T03:37:29;0;0;0
33948;PMS7003;20229;49.856;19.030;2024-01-15T03:42:47;1;1;0
33948;PMS7003;20229;49.856;19.030;2024-01-15T03:48:02;1;1;0
33948;PMS7003;20229;49.856;19.030;2024-01-15T03:53:16;2;1;0
33948;PMS7003;20229;49.856;19.030;2024-01-15T03:58:30;1;0;0
33948;PMS7003;20229;49.856;19.030;2024-01-15T04:03:44;0;0;0
33948;PMS7003;20229;49.856;19.030;2024-01-15T04:08:58;1;1;0
33948;PMS7003;20229;49.856;19.030;2024-01-15T04:14:13;1;0;0
33948;PMS7003;20229;49.856;19.030;2024-01-15T04:19:27;0;0;0
33948;PMS7003;20229;49.856;19.030;2024-01-15T04:24:41;1;0;0
33948;PMS7003;20229;49.856;19.030;2024-01-15T04:29:55;0;0;0
33948;PMS7003;20229;49.856;19.030;2024-01-15T04:35:09;0;0;0
33948;PMS7003;20229;49.856;19.030;2024-01-15T04:40:24;0;0;0
33948;PMS7003;20229;49.856;19.030;2024-01-15T04:45:41;0;0;0
33948;PMS7003;20229;49.856;19.030;2024-01-15T04:50:56;0;0;0
33948;PMS7003;20229;49.856;19.030;2024-01-15T04:56:10;0;0;0
33948;PMS7003;20229;49.856;19.030;2024-01-15T05:01:24;1;1;0
33948;PMS7003;20229;49.856;19.030;2024-01-15T05:06:38;1;0;0
33948;PMS7003;20229;49.856;19.030;2024-01-15T05:11:53;1;0;0
33948;PMS7003;20229;49.856;19.030;2024-01-15T05:17:07;0;0;0
33948;PMS7003;20229;49.856;19.030;2024-01-15T05:22:21;1;1;0
33948;PMS7003;20229;49.856;19.030;2024-01-15T05:27:40;1;1;0
33948;PMS7003;20229;49.856;19.030;2024-01-15T05:32:54;1;1;1
33948;PMS7003;20229;49.856;19.030;2024-01-15T05:38:08;1;0;0
33948;PMS7003;20229;49.856;19.030;2024-01-15T05:43:22;1;0;0
33948;PMS7003;20229;49.856;19.030;2024-01-15T05:48:36;0;0;0
33948;PMS7003;20229;49.856;19.030;2024-01-15T05:53:51;0;0;0
33948;PMS7003;20229;49.856;19.030;2024-01-15T05:59:12;0;0;0
33948;PMS7003;20229;49.856;19.030;2024-01-15T06:04:26;0;0;0
33948;PMS7003;20229;49.856;19.030;2024-01-15T06:09:40;2;1;0
33948;PMS7003;20229;49.856;19.030;2024-01-15T06:14:56;3;2;1
33948;PMS7003;20229;49.856;19.030;2024-01-15T06:20:10;1;1;0
33948;PMS7003;20229;49.856;19.030;2024-01-15T06:25:25;1;0;0
33948;PMS7003;20229;49.856;19.030;2024-01-15T06:30:39;2;2;1
33948;PMS7003;20229;49.856;19.030;2024-01-15T06:35:53;2;1;0
33948;PMS7003;20229;49.856;19.030;2024-01-15T06:41:07;2;2;0
33948;PMS7003;20229;49.856;19.030;2024-01-15T06:46:21;3;2;1
33948;PMS7003;20229;49.856;19.030;2024-01-15T06:51:36;3;2;0
33948;PMS7003;20229;49.856;19.030;2024-01-15T06:56:50;3;2;1
33948;PMS7003;20229;49.856;19.030;2024-01-15T07:02:05;3;1;1
33948;PMS7003;20229;49.856;19.030;2024-01-15T07:07:19;7;6;4
33948;PMS7003;20229;49.856;19.030;2024-01-15T07:12:33;7;5;4
33948;PMS7003;20229;49.856;19.030;2024-01-15T07:17:50;9;8;4
33948;PMS7003;20229;49.856;19.030;2024-01-15T07:23:04;9;7;4
33948;PMS7003;20229;49.856;19.030;2024-01-15T07:28:18;4;3;2
33948;PMS7003;20229;49.856;19.030;2024-01-15T07:33:32;3;3;1
33948;PMS7003;20229;49.856;19.030;2024-01-15T07:38:46;4;4;2
33948;PMS7003;20229;49.856;19.030;2024-01-15T07:44:00;4;4;3
33948;PMS7003;20229;49.856;19.030;2024-01-15T07:49:14;3;3;2
33948;PMS7003;20229;49.856;19.030;2024-01-15T07:54:29;5;3;3
33948;PMS7003;20229;49.856;19.030;2024-01-15T07:59:44;6;5;4
33948;PMS7003;20229;49.856;19.030;2024-01-15T08:04:58;6;6;2
33948;PMS7003;20229;49.856;19.030;2024-01-15T08:10:12;7;7;4
33948;PMS7003;20229;49.856;19.030;2024-01-15T08:15:27;8;7;4
33948;PMS7003;20229;49.856;19.030;2024-01-15T08:20:41;6;5;3
33948;PMS7003;20229;49.856;19.030;2024-01-15T08:25:58;9;7;4
33948;PMS7003;20229;49.856;19.030;2024-01-15T08:31:12;5;5;3
33948;PMS7003;20229;49.856;19.030;2024-01-15T08:36:26;10;7;4
33948;PMS7003;20229;49.856;19.030;2024-01-15T08:41:43;11;9;7
33948;PMS7003;20229;49.856;19.030;2024-01-15T08:46:57;8;6;4
33948;PMS7003;20229;49.856;19.030;2024-01-15T08:52:12;17;15;9
33948;PMS7003;20229;49.856;19.030;2024-01-15T08:57:27;10;10;5
33948;PMS7003;20229;49.856;19.030;2024-01-15T09:02:42;12;10;6
33948;PMS7003;20229;49.856;19.030;2024-01-15T09:07:56;9;9;5
33948;PMS7003;20229;49.856;19.030;2024-01-15T09:13:11;10;10;6
33948;PMS7003;20229;49.856;19.030;2024-01-15T09:18:25;14;13;8
33948;PMS7003;20229;49.856;19.030;2024-01-15T09:23:39;21;16;10
33948;PMS7003;20229;49.856;19.030;2024-01-15T09:28:55;18;17;9
33948;PMS7003;20229;49.856;19.030;2024-01-15T09:34:09;19;16;10
33948;PMS7003;20229;49.856;19.030;2024-01-15T09:39:24;14;13;8
33948;PMS7003;20229;49.856;19.030;2024-01-15T09:44:41;13;12;7
33948;PMS7003;20229;49.856;19.030;2024-01-15T09:49:56;13;11;6
33948;PMS7003;20229;49.856;19.030;2024-01-15T09:55:11;14;11;7
33948;PMS7003;20229;49.856;19.030;2024-01-15T10:00:28;10;10;6
33948;PMS7003;20229;49.856;19.030;2024-01-15T10:05:46;12;11;7
33948;PMS7003;20229;49.856;19.030;2024-01-15T10:11:13;15;13;7
33948;PMS7003;20229;49.856;19.030;2024-01-15T10:16:42;14;12;7
33948;PMS7003;20229;49.856;19.030;2024-01-15T10:21:56;10;9;7
33948;PMS7003;20229;49.856;19.030;2024-01-15T10:27:12;11;11;8
33948;PMS7003;20229;49.856;19.030;2024-01-15T10:32:28;12;12;6
33948;PMS7003;20229;49.856;19.030;2024-01-15T10:37:48;16;12;7
33948;PMS7003;20229;49.856;19.030;2024-01-15T10:43:02;13;11;7
33948;PMS7003;20229;49.856;19.030;2024-01-15T10:48:17;14;12;6
33948;PMS7003;20229;49.856;19.030;2024-01-15T10:53:32;17;15;7
33948;PMS7003;20229;49.856;19.030;2024-01-15T10:58:52;12;11;8
33948;PMS7003;20229;49.856;19.030;2024-01-15T11:04:08;16;12;8
33948;PMS7003;20229;49.856;19.030;2024-01-15T11:09:24;18;14;9
33948;PMS7003;20229;49.856;19.030;2024-01-15T11:14:38;14;14;8
33948;PMS7003;20229;49.856;19.030;2024-01-15T11:19:53;12;10;6
33948;PMS7003;20229;49.856;19.030;2024-01-15T11:30:35;13;11;7
33948;PMS7003;20229;49.856;19.030;2024-01-15T11:35:50;12;11;7
33948;PMS7003;20229;49.856;19.030;2024-01-15T11:41:13;13;10;7
33948;PMS7003;20229;49.856;19.030;2024-01-15T11:47:02;9;7;2
33948;PMS7003;20229;49.856;19.030;2024-01-15T11:52:18;14;14;8
33948;PMS7003;20229;49.856;19.030;2024-01-15T11:57:40;12;9;6
33948;PMS7003;20229;49.856;19.030;2024-01-15T12:02:58;16;14;9
33948;PMS7003;20229;49.856;19.030;2024-01-15T12:08:20;15;12;7
33948;PMS7003;20229;49.856;19.030;2024-01-15T12:13:39;15;13;8
33948;PMS7003;20229;49.856;19.030;2024-01-15T12:18:53;15;11;8
33948;PMS7003;20229;49.856;19.030;2024-01-15T12:24:09;14;13;8
33948;PMS7003;20229;49.856;19.030;2024-01-15T12:29:23;14;11;7
33948;PMS7003;20229;49.856;19.030;2024-01-15T12:34:37;13;12;8
33948;PMS7003;20229;49.856;19.030;2024-01-15T12:39:52;13;11;7
33948;PMS7003;20229;49.856;19.030;2024-01-15T12:45:11;15;11;7
33948;PMS7003;20229;49.856;19.030;2024-01-15T12:50:26;6;6;5
33948;PMS7003;20229;49.856;19.030;2024-01-15T12:55:40;14;11;8
33948;PMS7003;20229;49.856;19.030;2024-01-15T13:00:55;12;11;7
33948;PMS7003;20229;49.856;19.030;2024-01-15T13:06:12;13;11;7
33948;PMS7003;20229;49.856;19.030;2024-01-15T13:11:26;13;10;6
33948;PMS7003;20229;49.856;19.030;2024-01-15T13:16:42;8;8;6
33948;PMS7003;20229;49.856;19.030;2024-01-15T13:21:58;11;9;6
33948;PMS7003;20229;49.856;19.030;2024-01-15T13:27:15;12;10;7
33948;PMS7003;20229;49.856;19.030;2024-01-15T13:32:30;10;9;6
33948;PMS7003;20229;49.856;19.030;2024-01-15T13:37:44;12;11;6
33948;PMS7003;20229;49.856;19.030;2024-01-15T13:42:58;14;10;6
33948;PMS7003;20229;49.856;19.030;2024-01-15T13:48:12;11;10;6
33948;PMS7003;20229;49.856;19.030;2024-01-15T13:53:26;13;12;6
33948;PMS7003;20229;49.856;19.030;2024-01-15T13:58:40;8;8;6
33948;PMS7003;20229;49.856;19.030;2024-01-15T14:03:54;14;12;6
33948;PMS7003;20229;49.856;19.030;2024-01-15T14:09:08;15;13;8
33948;PMS7003;20229;49.856;19.030;2024-01-15T14:14:23;16;11;7
33948;PMS7003;20229;49.856;19.030;2024-01-15T14:19:38;15;14;7
33948;PMS7003;20229;49.856;19.030;2024-01-15T14:24:52;11;11;6
33948;PMS7003;20229;49.856;19.030;2024-01-15T14:30:07;11;11;6
33948;PMS7003;20229;49.856;19.030;2024-01-15T14:35:22;14;10;7
33948;PMS7003;20229;49.856;19.030;2024-01-15T14:40:36;12;10;6
33948;PMS7003;20229;49.856;19.030;2024-01-15T14:45:50;11;10;6
33948;PMS7003;20229;49.856;19.030;2024-01-15T14:51:04;8;7;4
33948;PMS7003;20229;49.856;19.030;2024-01-15T14:56:19;13;10;6
33948;PMS7003;20229;49.856;19.030;2024-01-15T15:01:34;13;12;7
33948;PMS7003;20229;49.856;19.030;2024-01-15T15:06:48;16;12;7
33948;PMS7003;20229;49.856;19.030;2024-01-15T15:12:04;13;10;7
33948;PMS7003;20229;49.856;19.030;2024-01-15T15:17:21;14;13;7
33948;PMS7003;20229;49.856;19.030;2024-01-15T15:22:35;20;14;10
33948;PMS7003;20229;49.856;19.030;2024-01-15T15:27:49;11;9;5
33948;PMS7003;20229;49.856;19.030;2024-01-15T15:33:04;11;10;7
33948;PMS7003;20229;49.856;19.030;2024-01-15T15:38:19;13;11;7
33948;PMS7003;20229;49.856;19.030;2024-01-15T15:43:36;14;10;7
33948;PMS7003;20229;49.856;19.030;2024-01-15T15:48:50;15;14;10
33948;PMS7003;20229;49.856;19.030;2024-01-15T15:54:04;18;12;8
33948;PMS7003;20229;49.856;19.030;2024-01-15T15:59:19;14;12;7
33948;PMS7003;20229;49.856;19.030;2024-01-15T16:04:35;16;10;6
33948;PMS7003;20229;49.856;19.030;2024-01-15T16:09:49;12;10;6
33948;PMS7003;20229;49.856;19.030;2024-01-15T16:15:03;12;11;7
33948;PMS7003;20229;49.856;19.030;2024-01-15T16:20:29;12;10;7
33948;PMS7003;20229;49.856;19.030;2024-01-15T16:25:46;18;9;6
33948;PMS7003;20229;49.856;19.030;2024-01-15T16:31:00;13;11;7
33948;PMS7003;20229;49.856;19.030;2024-01-15T16:36:14;12;12;8
33948;PMS7003;20229;49.856;19.030;2024-01-15T16:41:29;11;11;7
33948;PMS7003;20229;49.856;19.030;2024-01-15T16:46:45;10;7;5
33948;PMS7003;20229;49.856;19.030;2024-01-15T16:51:59;11;9;4
33948;PMS7003;20229;49.856;19.030;2024-01-15T16:57:14;11;9;5
33948;PMS7003;20229;49.856;19.030;2024-01-15T17:02:28;11;10;6
33948;PMS7003;20229;49.856;19.030;2024-01-15T17:07:42;13;11;6
33948;PMS7003;20229;49.856;19.030;2024-01-15T17:12:56;12;11;6
33948;PMS7003;20229;49.856;19.030;2024-01-15T17:18:11;13;11;8
33948;PMS7003;20229;49.856;19.030;2024-01-15T17:23:25;17;15;9
33948;PMS7003;20229;49.856;19.030;2024-01-15T17:28:39;13;12;8
33948;PMS7003;20229;49.856;19.030;2024-01-15T17:33:53;18;15;8
33948;PMS7003;20229;49.856;19.030;2024-01-15T17:39:10;10;9;5
33948;PMS7003;20229;49.856;19.030;2024-01-15T17:44:24;18;17;12
33948;PMS7003;20229;49.856;19.030;2024-01-15T17:49:39;22;20;13
33948;PMS7003;20229;49.856;19.030;2024-01-15T17:54:59;11;10;7
33948;PMS7003;20229;49.856;19.030;2024-01-15T18:00:13;25;23;18
33948;PMS7003;20229;49.856;19.030;2024-01-15T18:05:28;16;16;10
33948;PMS7003;20229;49.856;19.030;2024-01-15T18:10:45;16;12;8
33948;PMS7003;20229;49.856;19.030;2024-01-15T18:15:59;18;16;12
33948;PMS7003;20229;49.856;19.030;2024-01-15T18:21:13;18;15;9
33948;PMS7003;20229;49.856;19.030;2024-01-15T18:26:28;12;11;7
33948;PMS7003;20229;49.856;19.030;2024-01-15T18:31:43;9;8;6
33948;PMS7003;20229;49.856;19.030;2024-01-15T18:36:57;28;26;18
33948;PMS7003;20229;49.856;19.030;2024-01-15T18:42:11;19;17;11
33948;PMS7003;20229;49.856;19.030;2024-01-15T18:47:24;26;23;15
33948;PMS7003;20229;49.856;19.030;2024-01-15T18:52:40;21;20;15
33948;PMS7003;20229;49.856;19.030;2024-01-15T18:57:55;23;20;15
33948;PMS7003;20229;49.856;19.030;2024-01-15T19:03:09;10;10;7
33948;PMS7003;20229;49.856;19.030;2024-01-15T19:08:23;23;20;15
33948;PMS7003;20229;49.856;19.030;2024-01-15T19:13:37;27;24;15
33948;PMS7003;20229;49.856;19.030;2024-01-15T19:18:52;26;22;14
33948;PMS7003;20229;49.856;19.030;2024-01-15T19:24:06;23;22;13
33948;PMS7003;20229;49.856;19.030;2024-01-15T19:29:22;64;53;33
33948;PMS7003;20229;49.856;19.030;2024-01-15T19:34:37;29;25;17
33948;PMS7003;20229;49.856;19.030;2024-01-15T19:39:53;11;8;6
33948;PMS7003;20229;49.856;19.030;2024-01-15T19:45:08;17;13;8
33948;PMS7003;20229;49.856;19.030;2024-01-15T19:50:22;28;23;16
33948;PMS7003;20229;49.856;19.030;2024-01-15T19:55:36;15;13;8
33948;PMS7003;20229;49.856;19.030;2024-01-15T20:00:50;18;16;11
33948;PMS7003;20229;49.856;19.030;2024-01-15T20:06:04;20;19;13
33948;PMS7003;20229;49.856;19.030;2024-01-15T20:11:26;46;36;24
33948;PMS7003;20229;49.856;19.030;2024-01-15T20:16:40;104;90;54
33948;PMS7003;20229;49.856;19.030;2024-01-15T20:21:55;74;59;36
33948;PMS7003;20229;49.856;19.030;2024-01-15T20:27:09;32;29;19
33948;PMS7003;20229;49.856;19.030;2024-01-15T20:32:26;21;20;14
33948;PMS7003;20229;49.856;19.030;2024-01-15T20:37:41;13;10;7
33948;PMS7003;20229;49.856;19.030;2024-01-15T20:42:55;14;14;10
33948;PMS7003;20229;49.856;19.030;2024-01-15T20:48:09;21;18;12
33948;PMS7003;20229;49.856;19.030;2024-01-15T20:53:23;20;17;12
33948;PMS7003;20229;49.856;19.030;2024-01-15T20:58:37;15;14;10
33948;PMS7003;20229;49.856;19.030;2024-01-15T21:03:51;27;23;15
33948;PMS7003;20229;49.856;19.030;2024-01-15T21:09:05;9;8;5
33948;PMS7003;20229;49.856;19.030;2024-01-15T21:14:20;12;11;7
33948;PMS7003;20229;49.856;19.030;2024-01-15T21:19:34;6;6;4
33948;PMS7003;20229;49.856;19.030;2024-01-15T21:24:48;8;7;5
33948;PMS7003;20229;49.856;19.030;2024-01-15T21:30:02;8;6;3
33948;PMS7003;20229;49.856;19.030;2024-01-15T21:35:16;6;5;3
33948;PMS7003;20229;49.856;19.030;2024-01-15T21:40:32;5;5;4
33948;PMS7003;20229;49.856;19.030;2024-01-15T21:45:47;8;5;3
33948;PMS7003;20229;49.856;19.030;2024-01-15T21:51:01;6;5;3
33948;PMS7003;20229;49.856;19.030;2024-01-15T21:56:16;10;8;5
33948;PMS7003;20229;49.856;19.030;2024-01-15T22:01:31;12;12;9
33948;PMS7003;20229;49.856;19.030;2024-01-15T22:06:45;14;14;10
33948;PMS7003;20229;49.856;19.030;2024-01-15T22:11:59;24;21;16
33948;PMS7003;20229;49.856;19.030;2024-01-15T22:17:14;9;8;5
33948;PMS7003;20229;49.856;19.030;2024-01-15T22:22:29;22;21;16
33948;PMS7003;20229;49.856;19.030;2024-01-15T22:27:43;15;15;12
33948;PMS7003;20229;49.856;19.030;2024-01-15T22:32:57;7;6;3
33948;PMS7003;20229;49.856;19.030;2024-01-15T22:38:11;11;8;5
33948;PMS7003;20229;49.856;19.030;2024-01-15T22:43:26;15;13;9
33948;PMS7003;20229;49.856;19.030;2024-01-15T22:48:41;9;8;6
33948;PMS7003;20229;49.856;19.030;2024-01-15T22:53:55;8;8;5
33948;PMS7003;20229;49.856;19.030;2024-01-15T22:59:09;7;5;3
33948;PMS7003;20229;49.856;19.030;2024-01-15T23:04:23;12;12;7
33948;PMS7003;20229;49.856;19.030;2024-01-15T23:09:37;8;8;6
33948;PMS7003;20229;49.856;19.030;2024-01-15T23:14:55;5;5;2
33948;PMS7003;20229;49.856;19.030;2024-01-15T23:20:09;7;7;6
33948;PMS7003;20229;49.856;19.030;2024-01-15T23:25:26;5;5;2
33948;PMS7003;20229;49.856;19.030;2024-01-15T23:30:40;6;5;3
33948;PMS7003;20229;49.856;19.030;2024-01-15T23:35:54;7;6;3
33948;PMS7003;20229;49.856;19.030;2024-01-15T23:41:16;6;6;3
33948;PMS7003;20229;49.856;19.030;2024-01-15T23:46:36;8;6;3
33948;PMS7003;20229;49.856;19.030;2024-01-15T23:51:53;7;7;5
33948;PMS7003;20229;49.856;19.030;2024-01-15T23:57:07;7;5;4
